UAAH/BXH METAR and TAF weather

Enter ICAO airport designator
Station Type Date Time Source
UAAH METAR 2020/11/28 11:00 UTC NOAA

UAAH 281100Z 25012MPS 5000 BLSN BKN016CB M02/M04 Q1029 R05/450245 NOSIG RMK QFE734/0979


Station Type Date Time Source
UAAH Decoded METAR 2020/11/28 11:00 UTC NOAA

Station name not available
Nov 28, 2020 - 06:00 AM EST / 2020.11.28 1100 UTC
Wind: from the WSW (250 degrees) at 27 MPH (23 KT):0
Visibility: 3 mile(s):0
Sky conditions: mostly cloudy
Weather: blowing snow; Cumulonimbus clouds observed
Temperature: 28 F (-2 C)
Windchill: 12 F (-11 C):1
Dew Point: 24 F (-4 C)
Relative Humidity: 86%
Pressure (altimeter): 30.39 in. Hg (1029 hPa)
ob: UAAH 281100Z 25012MPS 5000 BLSN BKN016CB M02/M04 Q1029 R05/450245 NOSIG RMK QFE734/0979
cycle: 11

Station Type Date Time Source
UAAH TAF 2016/09/21 12:09 UTC NOAA

TAF
AMD TAF
AMD UAAH 211506Z 2112/2124 36006MPS CAVOK

Example: see airport list